createdAt,value
2023-03-25T00:18:05.836Z,99073.06
2023-03-25T00:20:48.786Z,99071.91
2023-03-25T00:23:19.054Z,99066.91
2023-03-25T00:25:50.209Z,99068.56
2023-03-25T00:28:19.998Z,99076.25
2023-03-25T00:30:49.391Z,99077.25
2023-03-25T00:33:26.869Z,99066.88
2023-03-25T00:35:59.035Z,99064.88
2023-03-25T00:38:42.915Z,99069.41
2023-03-25T00:41:28.751Z,99067.56
2023-03-25T00:43:59.609Z,99069.22
2023-03-25T00:46:31.843Z,99061.81
2023-03-25T00:49:02.735Z,99062.84
2023-03-25T00:51:31.403Z,99051.75
2023-03-25T00:54:08.712Z,99045.06
2023-03-25T00:56:35.815Z,99043.75
2023-03-25T00:59:03.367Z,99056.78
2023-03-25T01:01:30.433Z,99057.78
2023-03-25T01:04:00.166Z,99056.44
2023-03-25T01:06:44.170Z,99052.22
2023-03-25T01:09:17.083Z,99050.88
2023-03-25T01:11:51.282Z,99047.53
2023-03-25T01:14:32.171Z,99035.81
2023-03-25T01:17:03.007Z,99034.50
2023-03-25T01:19:29.891Z,99040.22
2023-03-25T01:22:14.313Z,99038.41
2023-03-25T01:24:51.673Z,99039.84
2023-03-25T01:27:18.317Z,99033.13
2023-03-25T01:30:00.807Z,99035.13
2023-03-25T01:32:29.365Z,99031.06
2023-03-25T01:34:56.450Z,99024.19
2023-03-25T01:37:25.722Z,99025.84
2023-03-25T01:40:00.633Z,99010.56
2023-03-25T01:42:36.846Z,99015.94
2023-03-25T01:45:27.505Z,98994.97
2023-03-25T01:48:36.092Z,99007.41
2023-03-25T01:51:24.619Z,99015.59
2023-03-25T01:53:57.154Z,99021.09
2023-03-25T01:56:38.271Z,99010.84
2023-03-25T01:59:10.393Z,99013.19
2023-03-25T02:01:37.837Z,99006.78
2023-03-25T02:06:58.453Z,99008.72
2023-03-25T02:09:27.382Z,99004.75
2023-03-25T02:11:57.168Z,99008.59
2023-03-25T02:14:36.899Z,98997.25
2023-03-25T02:17:31.519Z,99007.16
2023-03-25T02:20:54.396Z,99009.50
2023-03-25T02:24:23.165Z,98987.91
2023-03-25T02:27:27.380Z,98993.50
2023-03-25T02:31:00.915Z,98996.19
2023-03-25T02:34:42.587Z,98995.53
2023-03-25T02:37:51.081Z,98994.16
2023-03-25T02:40:47.464Z,99000.19
2023-03-25T02:43:53.320Z,98982.78
2023-03-25T02:46:30.313Z,98992.84
2023-03-25T02:49:27.674Z,98985.44
2023-03-25T02:52:18.342Z,98987.63
2023-03-25T02:54:51.233Z,98988.50
2023-03-25T02:57:23.124Z,98975.94
2023-03-25T02:59:54.143Z,98978.09
2023-03-25T03:02:32.483Z,98977.41
2023-03-25T03:04:59.867Z,98986.63
2023-03-25T03:07:47.320Z,98970.03
2023-03-25T03:10:31.168Z,98979.13
2023-03-25T03:13:34.008Z,98985.16
2023-03-25T03:16:25.651Z,98978.28
2023-03-25T03:19:33.170Z,98975.59
2023-03-25T03:22:52.884Z,98960.69
2023-03-25T03:25:53.937Z,98974.44
2023-03-25T03:29:03.432Z,98971.28
2023-03-25T03:32:06.019Z,98961.72
2023-03-25T03:35:03.439Z,98967.75
2023-03-25T03:38:11.414Z,98962.06
2023-03-25T03:40:56.788Z,98961.09
2023-03-25T03:43:47.909Z,98966.47
2023-03-25T03:46:44.422Z,98958.06
2023-03-25T03:49:24.019Z,98965.63
2023-03-25T03:52:09.034Z,98970.50
2023-03-25T03:55:03.595Z,98971.47
2023-03-25T03:57:44.514Z,98972.97
2023-03-25T04:00:31.668Z,98972.63
2023-03-25T04:03:24.515Z,98972.94
2023-03-25T04:06:10.108Z,98968.41
2023-03-25T04:09:07.045Z,98970.25
2023-03-25T04:11:50.547Z,98970.41
2023-03-25T04:14:25.745Z,98976.78
2023-03-25T04:16:55.969Z,98972.41
2023-03-25T04:19:25.937Z,98980.47
2023-03-25T04:21:55.995Z,98981.97
2023-03-25T04:24:26.744Z,98978.44
2023-03-25T04:27:03.806Z,98979.81
2023-03-25T04:29:47.813Z,98987.69
2023-03-25T04:32:24.157Z,98979.81
2023-03-25T04:34:51.042Z,98986.19
2023-03-25T04:37:24.054Z,98981.16
2023-03-25T04:40:00.260Z,98981.34
2023-03-25T04:42:32.609Z,98975.47
2023-03-25T04:45:00.186Z,98986.38
2023-03-25T04:47:28.230Z,98988.22
2023-03-25T04:49:58.106Z,98977.84
2023-03-25T04:52:34.596Z,98985.06
2023-03-25T04:55:05.339Z,98993.75
2023-03-25T04:57:32.790Z,98980.69
2023-03-25T04:59:59.630Z,98990.44
2023-03-25T05:02:27.877Z,98989.47
2023-03-25T05:05:04.057Z,99002.38
2023-03-25T05:07:33.262Z,98999.53
2023-03-25T05:10:00.227Z,98994.00
2023-03-25T05:12:27.357Z,98988.50
2023-03-25T05:14:54.188Z,98985.00
2023-03-25T05:17:20.941Z,98987.50
2023-03-25T05:19:47.880Z,98975.63
2023-03-25T05:22:23.339Z,98976.00
2023-03-25T05:24:57.709Z,98975.63
2023-03-25T05:27:28.632Z,98983.84
2023-03-25T05:30:16.256Z,98972.94
2023-03-25T05:32:45.787Z,98973.16
2023-03-25T05:38:02.018Z,98977.66
2023-03-25T05:40:28.941Z,98975.63
2023-03-25T05:43:06.899Z,98980.81
2023-03-25T05:45:43.532Z,98980.13
2023-03-25T05:48:35.746Z,98981.63
2023-03-25T05:51:15.931Z,98985.50
2023-03-25T05:53:53.320Z,98993.19
2023-03-25T05:56:29.576Z,98987.31
2023-03-25T05:59:05.067Z,98979.94
2023-03-25T06:01:42.366Z,98984.94
2023-03-25T06:04:13.489Z,98984.13
2023-03-25T06:06:43.566Z,98985.13
2023-03-25T07:39:54.544Z,99034.03
2023-03-25T07:42:30.576Z,99041.63
2023-03-25T07:44:57.294Z,99029.41
2023-03-25T07:47:36.065Z,99035.81
2023-03-25T07:50:06.202Z,99027.97
2023-03-25T07:52:33.050Z,99043.34
2023-03-25T07:55:00.774Z,99039.69
2023-03-25T07:57:30.610Z,99038.75
2023-03-25T07:59:57.375Z,99059.66
2023-03-25T08:02:37.168Z,99049.16
2023-03-25T08:05:42.048Z,99046.38
2023-03-25T08:08:09.942Z,99047.16
2023-03-25T08:10:36.657Z,99056.44
2023-03-25T08:13:12.318Z,99048.69
2023-03-25T08:15:46.116Z,99042.63
2023-03-25T08:18:13.418Z,99045.09
2023-03-25T08:20:43.491Z,99048.59
2023-03-25T08:23:10.625Z,99046.91
2023-03-25T08:25:49.529Z,99044.13
2023-03-25T08:28:27.054Z,99046.44
2023-03-25T08:31:02.478Z,99039.75
2023-03-25T08:33:34.482Z,99042.78
2023-03-25T08:36:16.607Z,99045.28
2023-03-25T08:38:48.281Z,99038.69
2023-03-25T08:41:15.986Z,99036.66
2023-03-25T08:43:46.433Z,99046.84
2023-03-25T08:46:14.218Z,99035.94
2023-03-25T08:48:49.582Z,99022.84
2023-03-25T08:51:17.043Z,99038.88
2023-03-25T08:53:49.286Z,99028.59
2023-03-25T08:56:18.904Z,99035.63
2023-03-25T08:58:45.741Z,99040.44
2023-03-25T09:01:15.207Z,99026.50
2023-03-25T09:03:44.885Z,99039.31
2023-03-25T09:06:14.646Z,99034.16
2023-03-25T09:08:50.456Z,99046.88
2023-03-25T09:11:37.004Z,99043.00
2023-03-25T09:14:05.212Z,99031.97
2023-03-25T09:16:53.465Z,99041.94
2023-03-25T09:19:20.201Z,99050.94
2023-03-25T09:21:55.407Z,99048.63
2023-03-25T09:24:35.963Z,99047.50
2023-03-25T09:27:03.964Z,99055.47
2023-03-25T09:29:32.566Z,99054.56
2023-03-25T09:32:01.118Z,99058.19
2023-03-25T09:34:28.710Z,99053.59
2023-03-25T09:36:56.673Z,99045.34
2023-03-25T09:39:32.470Z,99043.03
2023-03-25T09:42:54.032Z,99047.13
2023-03-25T09:45:50.266Z,99048.50
2023-03-25T09:48:47.016Z,99045.63
2023-03-25T09:51:35.930Z,99046.31
2023-03-25T09:54:48.792Z,99035.41
2023-03-25T09:57:27.221Z,99031.56
2023-03-25T09:59:57.351Z,99044.84
2023-03-25T10:02:51.109Z,99044.47
2023-03-25T10:06:17.613Z,99039.03
2023-03-25T10:09:34.568Z,99031.88
2023-03-25T10:13:20.012Z,99036.50
2023-03-25T10:16:20.950Z,99040.22
2023-03-25T10:19:34.190Z,99032.00
2023-03-25T10:22:44.613Z,99035.72
2023-03-25T10:47:08.525Z,99029.75
2023-03-25T10:49:44.130Z,99024.47
2023-03-25T11:29:35.263Z,99085.94
2023-03-25T12:07:23.266Z,99059.63
2023-03-25T12:23:20.066Z,99055.50
2023-03-25T12:26:14.544Z,99057.78
2023-03-25T12:29:16.135Z,99067.34
2023-03-25T12:36:06.738Z,99078.47
2023-03-25T12:38:36.434Z,99069.88
2023-03-25T12:41:30.021Z,99074.97
2023-03-25T12:44:32.006Z,99081.34
2023-03-25T12:47:27.208Z,99078.34
2023-03-25T12:50:33.723Z,99082.84
2023-03-25T12:53:38.441Z,99079.47
2023-03-25T12:56:59.418Z,99076.88
2023-03-25T12:59:53.871Z,99074.41
2023-03-25T13:03:00.864Z,99075.09
2023-03-25T13:05:58.338Z,99074.44
2023-03-25T13:08:50.772Z,99067.28
2023-03-25T13:12:23.301Z,99061.16
2023-03-25T13:15:36.571Z,99063.31
2023-03-25T13:18:23.874Z,99064.97
2023-03-25T13:21:36.524Z,99055.63
2023-03-25T13:24:27.355Z,99050.53
2023-03-25T13:26:57.210Z,99056.25
2023-03-25T13:29:46.499Z,99056.78
2023-03-25T13:32:52.813Z,99053.97
2023-03-25T13:36:05.829Z,99061.88
2023-03-25T13:38:49.235Z,99057.91
2023-03-25T13:41:52.098Z,99063.19
2023-03-25T13:50:36.470Z,99058.81
2023-03-25T13:56:35.632Z,99063.84
2023-03-25T14:00:07.590Z,99055.50
2023-03-25T14:25:57.662Z,99036.16
2023-03-25T14:43:01.267Z,99043.28
2023-03-25T15:06:42.095Z,99017.22
2023-03-25T15:09:15.035Z,99019.91
2023-03-25T15:12:00.418Z,99016.06
2023-03-25T15:14:48.646Z,99013.91
2023-03-25T15:17:45.996Z,99014.09
2023-03-25T15:20:37.820Z,99008.63
2023-03-25T15:23:59.555Z,99019.03
2023-03-25T15:26:45.664Z,99010.28
2023-03-25T15:30:21.392Z,99019.81
2023-03-25T15:33:17.992Z,99021.16
2023-03-25T15:37:00.086Z,99017.13
2023-03-25T15:40:06.639Z,99019.00
2023-03-25T15:43:05.429Z,99013.75
2023-03-25T15:46:23.118Z,99020.88
2023-03-25T15:49:23.330Z,99028.31
2023-03-25T15:52:42.646Z,99035.94
2023-03-25T15:55:28.074Z,99025.28
2023-03-25T15:58:04.372Z,99022.50
2023-03-25T16:00:57.908Z,99026.56
2023-03-25T16:03:45.118Z,99029.28
2023-03-25T16:06:18.253Z,99019.41
2023-03-25T16:08:49.794Z,99022.78
2023-03-25T16:11:22.485Z,99025.59
2023-03-25T16:14:06.584Z,99027.09
2023-03-25T16:16:54.536Z,99013.84
2023-03-25T16:19:51.892Z,99022.56
2023-03-25T16:22:33.221Z,99012.38
2023-03-25T16:25:18.382Z,99015.19
2023-03-25T16:27:55.886Z,99015.56
2023-03-25T16:30:38.314Z,99017.63
2023-03-25T16:33:07.944Z,99012.56
2023-03-25T16:36:17.571Z,99003.19
2023-03-25T16:38:44.564Z,99014.09
2023-03-25T16:41:16.175Z,99001.38
2023-03-25T16:43:46.063Z,99009.41
2023-03-25T16:46:23.506Z,99011.28
2023-03-25T16:48:57.219Z,99004.56
2023-03-25T16:51:42.649Z,99005.56
2023-03-25T16:54:36.105Z,99011.28
2023-03-25T16:57:10.487Z,98997.56
2023-03-25T16:59:50.954Z,99008.28
2023-03-25T17:03:01.830Z,99009.09
2023-03-25T17:06:19.430Z,99008.28
2023-03-25T17:09:04.784Z,98999.41
2023-03-25T17:11:33.303Z,98999.56
2023-03-25T17:14:07.668Z,98996.06
2023-03-25T17:16:42.042Z,98994.88
2023-03-25T17:19:15.968Z,98992.34
2023-03-25T17:22:06.141Z,98982.97
2023-03-25T17:25:47.804Z,98985.19
2023-03-25T17:28:58.038Z,98989.72
2023-03-25T17:31:30.848Z,98991.72
2023-03-25T17:34:47.050Z,98980.50
2023-03-25T17:37:15.660Z,98994.03
2023-03-25T17:39:51.075Z,98989.88
2023-03-25T17:42:26.776Z,98988.19
2023-03-25T17:44:54.062Z,98988.38
2023-03-25T17:47:21.818Z,98995.56
2023-03-25T17:49:51.212Z,98998.41
2023-03-25T17:52:20.162Z,98994.91
2023-03-25T17:54:47.095Z,98994.06
2023-03-25T17:57:19.686Z,98996.56
2023-03-25T17:59:55.645Z,99001.09
2023-03-25T18:02:23.436Z,99008.28
2023-03-25T18:04:53.263Z,99005.63
2023-03-25T18:07:21.293Z,99003.28
2023-03-25T18:09:59.706Z,99015.81
2023-03-25T18:12:35.192Z,99015.50
2023-03-25T18:15:13.729Z,99017.50
2023-03-25T18:17:51.809Z,99016.97
2023-03-25T18:20:28.637Z,99017.13
2023-03-25T18:22:55.891Z,99016.47
2023-03-25T18:25:23.947Z,99015.44
2023-03-25T18:27:57.807Z,99014.44
2023-03-25T18:30:55.829Z,99018.13
2023-03-25T18:33:24.370Z,99016.63
2023-03-25T18:35:56.250Z,99005.06
2023-03-25T19:08:36.971Z,99012.94
2023-03-25T19:57:33.908Z,99039.78
2023-03-25T20:19:43.394Z,99038.31
2023-03-25T20:49:22.290Z,99059.78
2023-03-25T20:54:38.304Z,99070.31
2023-03-25T20:57:10.502Z,99068.50
2023-03-25T21:51:30.238Z,99135.25
2023-03-25T21:56:46.983Z,99143.28
2023-03-25T21:59:13.753Z,99139.56
2023-03-25T22:01:45.595Z,99148.78
2023-03-25T22:04:12.559Z,99148.25
2023-03-25T22:06:42.238Z,99149.25
2023-03-25T22:09:09.244Z,99151.25
2023-03-25T22:11:42.020Z,99152.09
2023-03-25T22:14:09.691Z,99155.44
2023-03-25T22:16:37.812Z,99159.13
2023-03-25T22:19:08.049Z,99156.63
2023-03-25T22:21:37.508Z,99165.31
2023-03-25T22:24:18.249Z,99166.31
2023-03-25T22:26:48.123Z,99166.31
2023-03-25T22:29:18.333Z,99166.97
2023-03-25T22:31:50.800Z,99173.69
2023-03-25T22:34:17.452Z,99176.22
2023-03-25T22:36:52.863Z,99182.25
2023-03-25T22:39:23.088Z,99184.59
2023-03-25T22:41:50.527Z,99184.75
2023-03-25T22:44:18.528Z,99188.59
2023-03-25T22:46:59.560Z,99190.09
2023-03-25T22:49:26.448Z,99196.47
2023-03-25T22:51:54.077Z,99193.81
2023-03-25T22:54:21.399Z,99193.28
2023-03-25T22:56:48.666Z,99193.59
2023-03-25T22:59:15.628Z,99196.91
2023-03-25T23:01:48.804Z,99209.47
2023-03-25T23:04:16.136Z,99204.94
2023-03-25T23:07:00.512Z,99202.44
2023-03-25T23:09:54.163Z,99208.97
2023-03-25T23:12:25.577Z,99199.09
2023-03-25T23:14:59.186Z,99205.16
2023-03-25T23:17:28.574Z,99204.31
2023-03-25T23:19:55.411Z,99213.84
2023-03-25T23:22:22.199Z,99208.16
2023-03-25T23:24:48.859Z,99203.69
2023-03-25T23:27:18.498Z,99218.22
2023-03-25T23:29:48.428Z,99217.75
2023-03-25T23:32:16.427Z,99227.78
2023-03-25T23:34:43.054Z,99224.63
2023-03-25T23:37:12.105Z,99229.78
2023-03-25T23:39:48.226Z,99231.63
2023-03-25T23:42:14.894Z,99222.63
2023-03-25T23:44:50.947Z,99230.31
2023-03-25T23:47:17.638Z,99240.69
2023-03-25T23:49:44.437Z,99243.38
2023-03-25T23:52:13.953Z,99245.22
2023-03-25T23:54:44.434Z,99249.75
2023-03-25T23:57:12.539Z,99242.53
2023-03-25T23:59:41.760Z,99258.75
